Time;durP1;ratioP1;P1;durP2;ratioP2;P2;SDS_P1;SDS_P2;PMS_P1;PMS_P2;Temp;Humidity;BMP_temperature;BMP_pressure;BME280_temperature;BME280_humidity;BME280_pressure;Samples;Min_cycle;Max_cycle;Signal;HPM_P1;HPM_P2
2022/11/10 00:00:35;;;;;;;5.68;2.20;;;;;;;17.36;63.39;101603.25;4808088;30;20095;-82
2022/11/10 00:03:05;;;;;;;6.93;2.22;;;;;;;17.36;63.75;101611.91;4809798;30;20043;-82
2022/11/10 00:05:31;;;;;;;4.93;2.22;;;;;;;17.36;63.57;101604.09;4808063;29;20061;-83
2022/11/10 00:08:01;;;;;;;3.78;2.08;;;;;;;17.35;63.64;101604.94;4763359;30;20099;-82
2022/11/10 00:10:26;;;;;;;3.90;1.92;;;;;;;17.35;63.70;101610.16;4787216;30;20031;-82
2022/11/10 00:12:52;;;;;;;5.57;2.03;;;;;;;17.35;63.60;101610.16;4775823;30;20050;-82
2022/11/10 00:18:03;;;;;;;6.13;2.22;;;;;;;17.36;63.79;101618.84;4806348;30;20065;-82
2022/11/10 00:20:28;;;;;;;4.43;1.80;;;;;;;17.35;63.67;101617.94;4789536;30;20027;-82
2022/11/10 00:22:55;;;;;;;5.40;2.10;;;;;;;17.35;63.56;101615.34;4788206;30;20039;-82
2022/11/10 00:25:21;;;;;;;3.88;1.80;;;;;;;17.35;63.19;101614.50;4797181;29;20031;-82
2022/11/10 00:27:46;;;;;;;5.13;1.92;;;;;;;17.34;63.62;101616.22;4791066;30;20024;-82
2022/11/10 00:30:12;;;;;;;3.67;1.83;;;;;;;17.34;63.59;101621.44;4798140;29;20065;-82
2022/11/10 00:32:38;;;;;;;3.58;1.65;;;;;;;17.35;63.72;101623.16;4794399;30;20035;-82
2022/11/10 00:35:03;;;;;;;4.38;1.70;;;;;;;17.34;63.56;101616.22;4806965;29;20042;-82
2022/11/10 00:37:29;;;;;;;2.97;1.50;;;;;;;17.34;63.81;101626.63;4792572;30;20103;-82
2022/11/10 00:39:55;;;;;;;4.68;1.80;;;;;;;17.33;63.54;101624.88;4794906;30;20032;-83
2022/11/10 00:42:20;;;;;;;4.45;1.67;;;;;;;17.34;63.39;101633.56;4814985;29;20051;-83
2022/11/10 00:44:46;;;;;;;3.90;1.58;;;;;;;17.35;63.39;101637.91;4829861;29;20088;-83
2022/11/10 00:47:12;;;;;;;4.68;1.80;;;;;;;17.33;63.48;101637.88;4830057;29;20038;-83
2022/11/10 00:49:37;;;;;;;4.82;1.80;;;;;;;17.34;63.37;101643.97;4829869;29;20026;-83
2022/11/10 00:52:06;;;;;;;4.95;1.70;;;;;;;17.34;63.46;101643.97;4826445;29;20390;-82
2022/11/10 00:54:32;;;;;;;3.92;1.67;;;;;;;17.35;63.57;101653.50;4830569;29;20064;-83
2022/11/10 00:56:58;;;;;;;4.47;1.77;;;;;;;17.32;63.40;101638.75;4830030;29;20445;-83
2022/11/10 00:59:23;;;;;;;4.38;1.60;;;;;;;17.33;63.50;101640.50;4830582;29;20007;-83
2022/11/10 01:05:56;;;;;;;4.97;1.90;;;;;;;17.33;63.49;101635.28;4829755;29;20069;-83
2022/11/10 01:09:17;;;;;;;4.40;1.75;;;;;;;17.34;63.24;101643.97;4828309;29;20035;-83
2022/11/10 01:12:20;;;;;;;2.97;1.33;;;;;;;17.33;63.51;101637.88;4814471;29;20034;-83
2022/11/10 01:27:46;;;;;;;4.07;1.80;;;;;;;17.32;63.29;101636.16;5837158;23;20027;-82
2022/11/10 01:30:11;;;;;;;4.38;1.35;;;;;;;17.32;63.39;101650.91;4797274;29;20043;-82
2022/11/10 01:32:37;;;;;;;3.63;1.52;;;;;;;17.32;63.48;101664.78;4811798;30;20525;-83
2022/11/10 01:35:03;;;;;;;3.28;1.10;;;;;;;17.34;63.32;101685.59;4807500;29;20035;-83
2022/11/10 01:37:29;;;;;;;3.30;1.58;;;;;;;17.33;63.15;101679.50;4795379;30;20407;-82
2022/11/10 01:39:54;;;;;;;3.35;1.50;;;;;;;17.33;63.58;101676.91;4810673;30;20015;-83
2022/11/10 01:42:28;;;;;;;5.22;1.65;;;;;;;17.31;63.35;101683.88;4794789;30;20065;-82
2022/11/10 01:45:22;;;;;;;3.28;1.50;;;;;;;17.31;63.40;101681.25;4795295;30;20035;-83
2022/11/10 01:48:00;;;;;;;3.92;1.35;;;;;;;17.30;63.09;101684.72;4809002;30;20019;-83
2022/11/10 01:50:31;;;;;;;3.67;1.38;;;;;;;17.32;63.22;101696.00;4795527;30;20042;-82
2022/11/10 01:53:00;;;;;;;4.18;1.55;;;;;;;17.33;63.31;101694.25;4795690;30;20011;-83
2022/11/10 01:55:27;;;;;;;3.60;1.48;;;;;;;17.31;63.56;101686.47;4796110;29;20027;-83
2022/11/10 01:57:53;;;;;;;2.72;1.33;;;;;;;17.31;63.41;101681.25;4809086;29;20067;-82
2022/11/10 02:00:20;;;;;;;3.58;1.50;;;;;;;17.31;63.67;101693.38;4777174;30;20035;-82
2022/11/10 02:03:08;;;;;;;3.97;1.42;;;;;;;17.30;63.36;101695.13;4792315;30;20046;-83
2022/11/10 02:05:35;;;;;;;3.50;1.30;;;;;;;17.32;63.39;101705.53;4817118;29;20657;-83
2022/11/10 02:08:01;;;;;;;3.30;1.40;;;;;;;17.32;63.33;101710.75;4817423;29;20095;-83
2022/11/10 02:10:26;;;;;;;4.15;1.50;;;;;;;17.32;63.39;101710.75;4796066;29;20073;-83
2022/11/10 02:12:52;;;;;;;4.97;1.70;;;;;;;17.31;63.10;101712.50;4795510;30;20027;-83
2022/11/10 02:15:18;;;;;;;5.13;1.42;;;;;;;17.30;63.33;101721.13;4795468;30;20012;-83
2022/11/10 02:17:47;;;;;;;4.13;1.40;;;;;;;17.30;63.15;101730.69;4802991;30;20067;-81
2022/11/10 02:20:16;;;;;;;2.42;1.27;;;;;;;17.29;63.56;101724.63;4791433;30;20121;-82
2022/11/10 02:22:42;;;;;;;3.60;1.50;;;;;;;17.30;63.41;101728.94;4784901;30;20038;-82
2022/11/10 02:25:08;;;;;;;3.75;1.33;;;;;;;17.30;63.29;101723.72;4767328;30;20056;-82
2022/11/10 02:27:34;;;;;;;3.05;1.27;;;;;;;17.30;63.41;101731.53;4768945;30;20035;-82
2022/11/10 02:30:00;;;;;;;3.30;1.02;;;;;;;17.29;63.35;101729.81;4815893;29;20059;-81
2022/11/10 02:32:27;;;;;;;3.83;1.60;;;;;;;17.28;63.52;101734.13;4802145;29;20077;-82
2022/11/10 02:34:53;;;;;;;3.33;1.25;;;;;;;17.30;63.47;101725.47;4815269;29;20183;-82
2022/11/10 02:37:18;;;;;;;4.97;1.33;;;;;;;17.30;63.37;101728.94;4799417;29;20043;-82
2022/11/10 02:39:43;;;;;;;3.22;1.35;;;;;;;17.29;63.24;101732.41;4817805;29;20020;-82
2022/11/10 02:42:09;;;;;;;4.03;1.48;;;;;;;17.29;63.34;101729.81;4821402;29;20116;-82
2022/11/10 02:44:39;;;;;;;3.95;1.27;;;;;;;17.30;63.23;101736.75;4789409;30;20058;-82
2022/11/10 02:47:05;;;;;;;4.07;1.48;;;;;;;17.28;63.36;101739.31;4803597;30;20147;-82
2022/11/10 02:49:30;;;;;;;3.58;1.63;;;;;;;17.28;63.03;101736.72;4802717;29;20027;-81
2022/11/10 02:51:56;;;;;;;3.60;1.35;;;;;;;17.30;62.87;101743.69;4786150;30;20506;-81
2022/11/10 02:54:21;;;;;;;3.53;1.45;;;;;;;17.30;63.33;101747.16;4797893;29;20031;-81
2022/11/10 02:56:46;;;;;;;4.57;1.30;;;;;;;17.30;63.20;101741.94;4798657;29;20061;-81
2022/11/10 02:59:12;;;;;;;3.05;1.02;;;;;;;17.28;63.23;101747.13;4799692;29;20126;-81
2022/11/10 03:01:37;;;;;;;4.57;1.33;;;;;;;17.29;63.11;101753.22;4799673;30;20039;-82
2022/11/10 03:04:04;;;;;;;2.78;1.30;;;;;;;17.30;63.00;101754.09;4801406;30;20495;-81
2022/11/10 03:06:30;;;;;;;2.95;1.30;;;;;;;17.28;63.20;101756.66;4800867;30;20483;-82
2022/11/10 03:08:56;;;;;;;2.97;1.05;;;;;;;17.28;63.08;101760.13;4785938;30;20043;-82
2022/11/10 03:11:21;;;;;;;3.45;1.50;;;;;;;17.28;63.18;101752.34;4818239;29;20037;-81
2022/11/10 03:13:46;;;;;;;4.10;1.50;;;;;;;17.28;63.15;101748.88;4803341;30;20041;-82
2022/11/10 03:16:12;;;;;;;4.07;1.40;;;;;;;17.27;62.98;101755.81;4818537;29;20106;-82
2022/11/10 03:18:37;;;;;;;2.67;1.23;;;;;;;17.29;63.20;101755.81;4819016;29;20454;-82
2022/11/10 03:21:03;;;;;;;2.97;1.17;;;;;;;17.28;63.20;101760.13;4819497;29;20027;-82
2022/11/10 03:23:28;;;;;;;2.75;1.30;;;;;;;17.27;63.31;101762.75;4818127;29;20031;-82
2022/11/10 03:25:53;;;;;;;2.90;1.20;;;;;;;17.28;63.18;101767.06;4804755;29;20398;-82
2022/11/10 03:28:19;;;;;;;4.20;1.17;;;;;;;17.28;63.28;101764.47;4789238;30;20055;-82
2022/11/10 03:30:44;;;;;;;3.15;1.20;;;;;;;17.27;63.17;101765.34;4803821;30;20039;-82
2022/11/10 03:33:10;;;;;;;3.53;1.20;;;;;;;17.26;63.13;101759.25;4774561;30;20447;-82
2022/11/10 03:35:35;;;;;;;4.10;1.42;;;;;;;17.26;63.11;101767.06;4819030;29;20046;-82
2022/11/10 03:38:01;;;;;;;5.03;1.30;;;;;;;17.27;63.17;101771.41;4806695;30;20103;-82
2022/11/10 03:40:27;;;;;;;3.35;1.35;;;;;;;17.27;63.11;101776.63;4820441;29;20027;-81
2022/11/10 03:42:52;;;;;;;3.42;1.42;;;;;;;17.27;63.14;101786.16;4784914;30;20027;-81
2022/11/10 03:45:18;;;;;;;4.78;1.30;;;;;;;17.27;63.17;101792.22;4788591;30;20031;-81
2022/11/10 03:47:45;;;;;;;2.80;1.25;;;;;;;17.28;63.20;101796.56;4809203;29;20042;-83
2022/11/10 03:50:10;;;;;;;4.82;1.40;;;;;;;17.28;63.10;101793.09;4785554;30;20495;-82
2022/11/10 03:52:39;;;;;;;3.25;1.30;;;;;;;17.27;63.34;101796.56;4817373;29;20038;-81
2022/11/10 03:55:04;;;;;;;4.35;1.45;;;;;;;17.27;62.94;101797.44;4817447;29;20502;-82
2022/11/10 03:57:30;;;;;;;4.57;1.30;;;;;;;17.28;63.08;101806.09;4802020;29;20040;-81
2022/11/10 03:59:55;;;;;;;5.13;1.38;;;;;;;17.26;63.09;101800.88;4802187;29;20046;-82
2022/11/10 04:02:20;;;;;;;4.38;1.15;;;;;;;17.26;63.15;101800.00;4801615;29;20114;-82
2022/11/10 04:10:14;;;;;;;;;;;;;;;17.26;63.19;101800.88;4788874;30;20050;-82
2022/11/10 04:15:41;;;;;;;;;;;;;;;17.26;63.08;101803.47;4805329;30;20065;-82
2022/11/10 04:18:20;;;;;;;4.47;1.38;;;;;;;17.26;62.87;101815.63;4808507;29;20007;-82
2022/11/10 04:20:47;;;;;;;2.88;1.10;;;;;;;17.25;63.07;101827.75;4793015;30;20043;-82
2022/11/10 04:23:25;;;;;;;3.50;1.25;;;;;;;17.27;63.07;101843.41;4808226;30;20039;-82
2022/11/10 04:28:48;;;;;;;4.20;1.35;;;;;;;17.25;63.08;101855.50;4795055;30;20140;-82
2022/11/10 04:31:15;;;;;;;3.63;1.20;;;;;;;17.26;63.30;101854.66;4783931;30;20049;-81
2022/11/10 04:33:41;;;;;;;5.00;1.38;;;;;;;17.25;62.98;101858.13;4772416;30;20103;-82
2022/11/10 04:36:07;;;;;;;3.08;1.15;;;;;;;17.26;63.01;101870.25;4786989;30;20039;-83
2022/11/10 04:38:35;;;;;;;3.45;1.20;;;;;;;17.26;62.99;101870.25;4774530;30;20034;-82
2022/11/10 04:41:02;;;;;;;3.00;1.20;;;;;;;17.26;62.88;101873.72;4788384;30;20047;-82
2022/11/10 04:43:38;;;;;;;3.33;1.27;;;;;;;17.26;63.21;101865.06;4771979;30;20039;-82
2022/11/10 04:46:19;;;;;;;3.42;1.30;;;;;;;17.26;63.05;101871.13;4785052;30;20040;-81
2022/11/10 04:48:49;;;;;;;3.83;1.42;;;;;;;17.25;63.17;101869.38;4769157;30;20040;-81
2022/11/10 04:51:17;;;;;;;2.90;1.13;;;;;;;17.24;63.16;101866.75;4753082;30;20126;-81
2022/11/10 04:53:42;;;;;;;2.83;1.30;;;;;;;17.23;62.87;101867.63;4751191;30;20051;-82
2022/11/10 04:56:14;;;;;;;4.05;1.40;;;;;;;17.23;62.83;101876.31;4767121;30;20491;-81
2022/11/10 04:58:47;;;;;;;5.00;1.52;;;;;;;17.25;63.01;101878.94;4782822;30;20043;-82
2022/11/10 05:01:17;;;;;;;2.88;1.00;;;;;;;17.25;62.97;101889.34;4783305;30;20027;-81
2022/11/10 05:03:51;;;;;;;5.28;1.30;;;;;;;17.23;62.85;101884.13;4782456;30;20036;-82
2022/11/10 05:06:18;;;;;;;4.05;1.50;;;;;;;17.24;62.73;101879.78;4784458;30;20055;-81
2022/11/10 05:08:46;;;;;;;4.28;1.23;;;;;;;17.21;62.80;101870.22;4781644;30;20036;-82
2022/11/10 05:11:20;;;;;;;3.67;1.20;;;;;;;17.22;63.16;101878.88;4785054;30;20055;-81
2022/11/10 05:13:46;;;;;;;3.20;1.10;;;;;;;17.22;62.85;101881.50;4790106;30;20066;-82
2022/11/10 05:16:12;;;;;;;3.35;1.27;;;;;;;17.22;62.99;101878.88;4774861;30;20035;-81
2022/11/10 05:18:41;;;;;;;3.40;1.20;;;;;;;17.22;62.77;101884.09;4769982;30;20036;-81
2022/11/10 05:21:23;;;;;;;4.95;1.45;;;;;;;17.21;62.96;101895.38;4769227;30;20155;-81
2022/11/10 05:23:48;;;;;;;3.35;1.33;;;;;;;17.21;62.98;101897.97;4783034;30;20070;-81
2022/11/10 05:26:16;;;;;;;3.47;1.15;;;;;;;17.22;62.91;101898.00;4784892;30;20031;-82
2022/11/10 05:29:00;;;;;;;3.05;1.30;;;;;;;17.24;62.94;101903.19;4793483;29;20045;-82
2022/11/10 05:31:36;;;;;;;3.40;1.15;;;;;;;17.22;62.94;101905.78;4805937;30;20046;-82
2022/11/10 05:34:13;;;;;;;3.08;1.10;;;;;;;17.21;62.81;101904.03;4803548;30;20075;-82
2022/11/10 05:37:31;;;;;;;3.95;1.33;;;;;;;17.22;62.88;101905.78;4790906;30;20044;-82
2022/11/10 05:40:26;;;;;;;3.05;1.38;;;;;;;17.23;62.89;101910.13;4748635;30;20059;-82
2022/11/10 05:43:12;;;;;;;5.00;1.25;;;;;;;17.24;62.83;101905.78;4755323;30;20074;-81
2022/11/10 05:46:38;;;;;;;2.40;1.10;;;;;;;17.26;62.79;101911.88;4746582;30;20047;-82
2022/11/10 05:49:07;;;;;;;3.30;1.10;;;;;;;17.28;63.05;101925.78;4712130;30;20025;-83
2022/11/10 05:51:53;;;;;;;2.63;0.80;;;;;;;17.32;62.79;101931.88;4705971;30;20054;-83
2022/11/10 05:55:23;;;;;;;3.33;1.33;;;;;;;17.32;62.90;101930.16;4701613;30;20033;-82
2022/11/10 06:06:57;;;;;;;12.15;3.97;;;;;;;17.38;63.13;101955.38;5239892;24;20074;-78
2022/11/10 06:12:31;;;;;;;19.10;5.40;;;;;;;17.43;63.29;101962.34;4787659;30;20048;-79
2022/11/10 06:18:20;;;;;;;;;;;;;;;17.45;63.30;101965.81;4806253;29;20041;-85
2022/11/10 06:20:48;;;;;;;12.50;3.90;;;;;;;17.47;63.51;101969.31;4819531;29;20033;-81
2022/11/10 06:27:12;;;;;;;9.88;3.15;;;;;;;17.47;63.87;101974.53;4828229;29;20073;-83
2022/11/10 06:59:59;;;;;;;12.20;4.68;;;;;;;17.47;64.33;102025.69;4787918;30;20315;-82
2022/11/10 07:05:50;;;;;;;12.48;4.38;;;;;;;17.35;64.51;102015.16;5569678;24;21427;-81
2022/11/10 17:00:00;;;;;;;2.80;1.20;;;;;;;17.42;62.72;102470.66;5296658;24;20122;31
2022/11/10 17:57:05;;;;;;;2.28;0.90;;;;;;;17.40;62.47;102498.38;5802359;23;20915;-84
2022/11/10 17:59:46;;;;;;;2.83;1.10;;;;;;;17.40;62.45;102500.13;4830452;29;20034;-87
2022/11/10 18:08:32;;;;;;;1.85;1.00;;;;;;;17.42;62.42;102514.00;5450460;24;20856;-82
2022/11/10 18:14:32;;;;;;;3.10;1.10;;;;;;;17.41;62.45;102517.47;4883479;24;20062;-85
2022/11/10 18:27:25;;;;;;;5.38;1.50;;;;;;;17.40;62.57;102536.53;5377401;24;20073;-82
2022/11/10 18:48:57;;;;;;;7.65;2.20;;;;;;;17.42;63.24;102517.50;5504361;24;20281;-83
2022/11/10 18:51:22;;;;;;;6.40;2.20;;;;;;;17.43;63.43;102542.66;5177605;24;20081;-87
2022/11/10 19:06:48;;;;;;;9.32;2.10;;;;;;;17.41;63.58;102528.75;5679335;23;20076;-85
2022/11/10 19:12:25;;;;;;;8.52;2.42;;;;;;;17.42;63.73;102537.41;5878784;24;20021;31
2022/11/10 21:08:53;;;;;;;5.43;1.75;;;;;;;17.38;63.39;102616.31;5428793;24;20054;-84
